createdAt,value
2019-06-07T00:00:42.044Z,20.80
2019-06-07T00:03:23.872Z,22.47
2019-06-07T00:05:41.738Z,24.27
2019-06-07T00:08:17.123Z,25.60
2019-06-07T00:10:41.280Z,26.73
2019-06-07T00:13:12.128Z,26.70
2019-06-07T00:15:40.733Z,24.40
2019-06-07T00:18:11.158Z,23.87
2019-06-07T00:20:40.080Z,22.03
2019-06-07T00:23:11.373Z,23.83
2019-06-07T00:25:39.439Z,22.10
2019-06-07T00:28:08.286Z,22.27
2019-06-07T00:30:50.779Z,22.87
2019-06-07T00:33:10.060Z,23.17
2019-06-07T00:35:38.386Z,26.63
2019-06-07T00:38:07.231Z,26.87
2019-06-07T00:40:36.106Z,27.80
2019-06-07T00:43:04.909Z,25.47
2019-06-07T00:45:33.786Z,25.23
2019-06-07T00:48:02.901Z,25.67
2019-06-07T00:50:31.773Z,27.77
2019-06-07T00:53:21.627Z,27.00
2019-06-07T00:55:31.124Z,28.70
2019-06-07T00:57:59.938Z,30.13
2019-06-07T01:00:28.724Z,29.47
2019-06-07T01:02:57.555Z,28.73
2019-06-07T01:05:31.444Z,29.60
2019-06-07T01:07:56.931Z,29.20
2019-06-07T01:10:51.548Z,26.97
2019-06-07T01:12:56.279Z,27.43
2019-06-07T01:15:28.850Z,27.20
2019-06-07T01:20:26.778Z,27.03
2019-06-07T01:22:55.807Z,24.17
2019-06-07T01:25:26.296Z,24.43
2019-06-07T01:27:55.483Z,24.73
2019-06-07T01:30:26.489Z,23.90
2019-06-07T01:32:54.918Z,28.00
2019-06-07T01:35:25.483Z,32.13
2019-06-07T01:37:54.606Z,27.90
2019-06-07T01:40:27.794Z,29.30
2019-06-07T01:42:53.905Z,28.67
2019-06-07T01:45:23.643Z,27.40
2019-06-07T01:47:52.687Z,27.90
2019-06-07T01:50:24.487Z,29.83
2019-06-07T01:52:52.092Z,30.97
2019-06-07T01:55:23.606Z,31.00
2019-06-07T01:57:51.428Z,27.53
2019-06-07T02:00:22.127Z,28.53
2019-06-07T02:02:51.062Z,27.93
2019-06-07T02:05:21.533Z,27.03
2019-06-07T02:07:50.821Z,25.57
2019-06-07T02:10:23.993Z,24.63
2019-06-07T02:12:50.591Z,23.73
2019-06-07T02:15:21.699Z,22.10
2019-06-07T02:17:49.942Z,22.73
2019-06-07T02:20:20.340Z,24.77
2019-06-07T02:22:49.470Z,20.63
2019-06-07T02:27:49.128Z,19.67
2019-06-07T02:30:40.343Z,18.23
2019-06-07T02:32:48.615Z,18.50
2019-06-07T02:35:17.539Z,18.03
2019-06-07T02:37:46.383Z,16.80
2019-06-07T02:40:15.244Z,15.90
2019-06-07T02:42:44.153Z,14.97
2019-06-07T02:45:13.060Z,13.87
2019-06-07T02:47:43.281Z,14.10
2019-06-07T02:50:12.239Z,13.67
2019-06-07T02:52:41.983Z,14.83
2019-06-07T02:55:11.413Z,13.87
2019-06-07T02:57:42.165Z,14.40
2019-06-07T03:00:40.845Z,12.70
2019-06-07T03:02:42.157Z,12.63
2019-06-07T03:05:11.521Z,11.37
2019-06-07T03:07:45.043Z,11.23
2019-06-07T03:10:31.723Z,11.23
2019-06-07T03:13:00.749Z,9.73
2019-06-07T03:15:35.473Z,9.17
2019-06-07T03:18:36.389Z,8.40
2019-06-07T03:21:07.204Z,8.17
2019-06-07T03:23:36.219Z,8.43
2019-06-07T03:26:05.176Z,8.23
2019-06-07T03:28:36.082Z,8.43
2019-06-07T03:31:04.536Z,7.90
2019-06-07T03:33:41.060Z,7.27
2019-06-07T03:36:22.919Z,7.00
2019-06-07T03:38:35.247Z,6.93
2019-06-07T03:41:05.035Z,6.83
2019-06-07T03:43:36.644Z,6.87
2019-06-07T03:46:04.584Z,6.93
2019-06-07T03:48:36.366Z,6.63
2019-06-07T03:51:05.053Z,6.10
2019-06-07T03:53:36.537Z,6.23
2019-06-07T03:56:05.184Z,6.07
2019-06-07T03:58:44.432Z,6.30
2019-06-07T04:01:04.738Z,6.47
2019-06-07T04:03:43.532Z,6.20
2019-06-07T04:06:04.083Z,6.07
2019-06-07T04:08:36.441Z,6.20
2019-06-07T04:11:03.585Z,6.47
2019-06-07T04:13:34.806Z,6.17
2019-06-07T04:16:05.948Z,5.70
2019-06-07T04:18:36.479Z,6.20
2019-06-07T04:21:05.510Z,5.37
2019-06-07T04:23:37.558Z,5.30
2019-06-07T04:26:04.914Z,5.70
2019-06-07T04:29:24.823Z,5.10
2019-06-07T04:31:04.282Z,4.97
2019-06-07T04:33:37.122Z,5.43
2019-06-07T04:36:03.692Z,4.60
2019-06-07T04:38:36.190Z,5.20
2019-06-07T04:41:03.695Z,5.10
2019-06-07T04:43:33.534Z,4.60
2019-06-07T04:46:02.489Z,4.73
2019-06-07T04:48:33.260Z,5.00
2019-06-07T04:51:02.440Z,5.67
2019-06-07T04:53:37.437Z,5.00
2019-06-07T04:56:02.019Z,5.07
2019-06-07T04:58:31.490Z,4.33
2019-06-07T05:01:03.382Z,4.73
2019-06-07T05:03:35.081Z,4.70
2019-06-07T05:06:01.576Z,4.50
2019-06-07T05:08:31.958Z,4.20
2019-06-07T05:11:00.886Z,4.40
2019-06-07T05:13:31.509Z,4.50
2019-06-07T05:16:00.223Z,24.50
2019-06-07T05:18:29.701Z,29.13
2019-06-07T05:20:59.303Z,22.17
2019-06-07T05:24:03.512Z,18.23
2019-06-07T05:25:59.341Z,15.40
2019-06-07T05:28:28.232Z,13.83
2019-06-07T05:31:04.352Z,12.10
2019-06-07T05:33:27.696Z,11.03
2019-06-07T05:35:56.626Z,9.07
2019-06-07T05:38:25.411Z,8.50
2019-06-07T05:40:54.295Z,8.20
2019-06-07T05:43:27.662Z,7.27
2019-06-07T05:45:56.562Z,7.10
2019-06-07T05:48:26.878Z,6.90
2019-06-07T05:50:57.295Z,6.67
2019-06-07T05:53:26.597Z,7.57
2019-06-07T05:55:55.596Z,8.20
2019-06-07T05:58:24.465Z,7.83
2019-06-07T06:00:53.295Z,7.63
2019-06-07T06:03:22.430Z,6.53
2019-06-07T06:05:55.274Z,7.07
2019-06-07T06:08:21.729Z,7.40
2019-06-07T06:10:50.592Z,6.90
2019-06-07T06:13:19.499Z,6.80
2019-06-07T06:16:00.665Z,6.20
2019-06-07T06:18:18.983Z,6.80
2019-06-07T06:21:09.466Z,7.50
2019-06-07T06:23:18.404Z,7.27
2019-06-07T06:25:53.550Z,6.53
2019-06-07T06:28:17.886Z,7.10
2019-06-07T06:30:49.412Z,6.73
2019-06-07T06:33:33.198Z,7.50
2019-06-07T06:35:50.819Z,7.67
2019-06-07T06:38:19.118Z,7.40
2019-06-07T06:40:54.961Z,7.83
2019-06-07T06:43:18.530Z,7.73
2019-06-07T06:45:50.462Z,7.60
2019-06-07T06:48:17.943Z,6.83
2019-06-07T06:50:50.125Z,6.30
2019-06-07T06:53:17.404Z,6.93
2019-06-07T06:55:48.489Z,7.10
2019-06-07T06:58:16.799Z,7.07
2019-06-07T07:00:58.971Z,7.53
2019-06-07T07:03:54.210Z,8.60
2019-06-07T07:05:50.842Z,8.30
2019-06-07T07:08:19.432Z,7.13
2019-06-07T07:10:52.428Z,6.50
2019-06-07T07:13:19.479Z,6.13
2019-06-07T07:15:55.090Z,5.70
2019-06-07T07:18:19.377Z,5.47
2019-06-07T07:20:50.432Z,6.00
2019-06-07T07:23:19.601Z,6.20
2019-06-07T07:25:55.541Z,5.20
2019-06-07T07:28:19.180Z,5.30
2019-06-07T07:30:52.656Z,5.83
2019-06-07T07:33:19.838Z,5.73
2019-06-07T07:36:10.936Z,5.60
2019-06-07T07:38:19.172Z,5.90
2019-06-07T07:41:01.573Z,5.57
2019-06-07T07:43:18.548Z,5.77
2019-06-07T07:45:54.961Z,6.00
2019-06-07T07:48:18.714Z,5.97
2019-06-07T07:50:50.565Z,6.33
2019-06-07T07:53:18.245Z,5.83
2019-06-07T07:55:52.344Z,5.53
2019-06-07T07:58:17.860Z,5.67
2019-06-07T08:00:54.994Z,5.27
2019-06-07T08:03:17.286Z,5.53
2019-06-07T08:05:47.125Z,6.40
2019-06-07T08:08:16.800Z,5.40
2019-06-07T08:10:48.054Z,5.87
2019-06-07T08:13:25.571Z,6.27
2019-06-07T08:15:48.327Z,5.73
2019-06-07T08:18:17.469Z,5.60
2019-06-07T08:21:05.025Z,5.57
2019-06-07T08:23:18.564Z,5.90
2019-06-07T08:25:49.040Z,5.60
2019-06-07T08:28:18.154Z,4.83
2019-06-07T08:30:52.130Z,5.43
2019-06-07T08:33:26.143Z,4.93
2019-06-07T08:36:16.997Z,5.37
2019-06-07T08:38:27.412Z,4.97
2019-06-07T08:40:54.623Z,4.73
2019-06-07T08:43:21.243Z,4.50
2019-06-07T08:45:55.336Z,4.47
2019-06-07T08:48:27.753Z,4.13
2019-06-07T08:50:57.078Z,4.10
2019-06-07T08:53:22.190Z,4.30
2019-06-07T08:55:52.420Z,4.10
2019-06-07T08:58:21.572Z,3.90
2019-06-07T09:00:51.374Z,4.13
2019-06-07T09:03:21.084Z,3.57
2019-06-07T09:05:49.919Z,4.00
2019-06-07T09:08:29.787Z,3.87
2019-06-07T09:10:49.210Z,3.60
2019-06-07T09:13:18.592Z,3.77
2019-06-07T09:15:47.489Z,3.50
2019-06-07T09:18:42.314Z,3.70
2019-06-07T09:20:48.419Z,3.50
2019-06-07T09:23:17.908Z,3.63
2019-06-07T09:25:57.357Z,3.60
2019-06-07T09:28:20.039Z,3.30
2019-06-07T09:30:48.315Z,3.60
2019-06-07T09:33:17.769Z,3.80
2019-06-07T09:35:46.572Z,3.27
2019-06-07T09:38:24.723Z,3.43
2019-06-07T09:40:45.944Z,3.60
2019-06-07T09:45:45.494Z,3.33
2019-06-07T09:48:23.970Z,3.40
2019-06-07T09:50:44.938Z,3.37
2019-06-07T09:53:22.352Z,3.40
2019-06-07T09:55:44.320Z,3.13
2019-06-07T10:00:44.110Z,3.20
2019-06-07T10:03:21.421Z,2.80
2019-06-07T10:05:43.756Z,3.03
2019-06-07T10:08:54.507Z,3.10
2019-06-07T10:10:43.571Z,3.03
2019-06-07T10:13:12.800Z,2.87
2019-06-07T10:15:41.713Z,3.20
2019-06-07T10:18:11.195Z,2.87
2019-06-07T10:20:40.071Z,2.90
2019-06-07T10:23:10.134Z,2.80
2019-06-07T10:25:39.197Z,2.80
2019-06-07T10:28:08.295Z,2.90
2019-06-07T10:30:37.292Z,3.03
2019-06-07T10:33:06.889Z,3.43
2019-06-07T10:35:35.867Z,3.77
2019-06-07T10:38:04.692Z,3.70
2019-06-07T10:40:33.630Z,3.27
2019-06-07T10:43:02.985Z,4.13
2019-06-07T10:45:32.056Z,4.33
2019-06-07T10:48:01.496Z,4.80
2019-06-07T10:50:30.442Z,3.80
2019-06-07T10:52:59.228Z,3.67
2019-06-07T10:55:28.099Z,3.50
2019-06-07T10:57:56.920Z,3.60
2019-06-07T11:00:25.711Z,2.87
2019-06-07T11:02:55.400Z,3.10
2019-06-07T11:05:24.450Z,2.50
2019-06-07T11:07:53.383Z,2.97
2019-06-07T11:10:22.372Z,2.90
2019-06-07T11:12:51.140Z,2.63
2019-06-07T11:15:21.773Z,3.07
2019-06-07T11:17:50.584Z,2.80
2019-06-07T11:20:20.939Z,3.13
2019-06-07T11:22:49.802Z,3.00
2019-06-07T11:25:18.699Z,2.80
2019-06-07T11:27:47.596Z,3.37
2019-06-07T11:30:16.774Z,3.60
2019-06-07T11:32:45.554Z,3.77
2019-06-07T11:35:15.508Z,3.70
2019-06-07T11:37:44.627Z,3.63
2019-06-07T11:40:33.216Z,3.40
2019-06-07T11:42:44.348Z,3.70
2019-06-07T11:45:15.344Z,3.50
2019-06-07T11:47:44.099Z,3.20
2019-06-07T11:50:13.710Z,3.90
2019-06-07T11:52:46.182Z,4.23
2019-06-07T11:55:15.283Z,4.67
2019-06-07T11:57:44.061Z,4.37
2019-06-07T12:00:16.089Z,4.83
2019-06-07T12:02:45.245Z,4.50
2019-06-07T12:05:17.183Z,4.50
2019-06-07T12:07:44.861Z,4.40
2019-06-07T12:10:16.574Z,4.97
2019-06-07T12:12:44.461Z,5.10
2019-06-07T12:15:14.991Z,5.10
2019-06-07T12:17:44.033Z,7.77
2019-06-07T12:20:14.730Z,9.87
2019-06-07T12:22:43.403Z,10.47
2019-06-07T12:25:12.512Z,9.53
2019-06-07T12:27:42.597Z,8.70
2019-06-07T12:30:19.502Z,7.03
2019-06-07T12:32:42.125Z,6.60
2019-06-07T12:35:11.518Z,6.17
2019-06-07T12:37:44.271Z,6.03
2019-06-07T12:40:15.734Z,5.87
2019-06-07T12:42:41.923Z,6.23
2019-06-07T12:45:10.941Z,6.13
2019-06-07T12:47:39.732Z,6.37
2019-06-07T12:50:08.710Z,6.97
2019-06-07T12:52:37.688Z,6.87
2019-06-07T12:55:06.642Z,8.00
2019-06-07T12:57:35.548Z,6.33
2019-06-07T13:00:05.901Z,7.10
2019-06-07T13:02:34.852Z,6.60
2019-06-07T13:05:04.837Z,6.47
2019-06-07T13:07:33.967Z,6.70
2019-06-07T13:10:02.783Z,6.30
2019-06-07T13:12:31.615Z,6.10
2019-06-07T13:15:00.676Z,5.90
2019-06-07T13:17:29.484Z,5.90
2019-06-07T13:19:58.420Z,5.47
2019-06-07T13:22:28.478Z,6.80
2019-06-07T13:24:59.547Z,6.37
2019-06-07T13:27:33.205Z,7.23
2019-06-07T13:29:58.839Z,8.27
2019-06-07T13:32:28.134Z,7.00
2019-06-07T13:34:57.171Z,8.40
2019-06-07T13:37:25.956Z,8.77
2019-06-07T13:39:54.937Z,7.97
2019-06-07T13:42:24.751Z,9.60
2019-06-07T13:44:54.019Z,9.20
2019-06-07T13:47:23.183Z,10.03
2019-06-07T13:49:55.119Z,9.37
2019-06-07T13:52:22.705Z,11.47
2019-06-07T13:54:51.562Z,11.10
2019-06-07T13:57:20.453Z,10.73
2019-06-07T13:59:49.287Z,11.07
2019-06-07T14:02:18.534Z,11.60
2019-06-07T14:04:47.618Z,9.43
2019-06-07T14:07:16.415Z,9.43
2019-06-07T14:09:45.263Z,9.60
2019-06-07T14:12:14.111Z,9.93
2019-06-07T14:14:42.990Z,9.37
2019-06-07T14:17:12.007Z,9.00
2019-06-07T14:19:40.828Z,8.37
2019-06-07T14:22:09.859Z,8.00
2019-06-07T14:24:38.647Z,7.77
2019-06-07T14:27:07.472Z,8.30
2019-06-07T14:29:37.067Z,7.97
2019-06-07T14:32:08.421Z,8.30
2019-06-07T14:34:37.346Z,7.10
2019-06-07T14:37:07.503Z,7.17
2019-06-07T14:39:36.364Z,7.30
2019-06-07T14:42:09.748Z,7.30
2019-06-07T14:44:35.954Z,6.40
2019-06-07T14:47:04.844Z,6.47
2019-06-07T14:49:34.703Z,7.00
2019-06-07T14:52:03.929Z,7.30
2019-06-07T14:54:36.303Z,6.17
2019-06-07T14:57:03.749Z,5.43
2019-06-07T14:59:32.934Z,5.20
2019-06-07T15:02:02.273Z,5.50
2019-06-07T15:04:31.160Z,5.80
2019-06-07T15:06:59.947Z,4.70
2019-06-07T15:09:29.172Z,4.67
2019-06-07T15:11:58.132Z,4.30
2019-06-07T15:14:27.336Z,5.00
2019-06-07T15:16:56.270Z,4.73
2019-06-07T15:19:26.493Z,4.60
2019-06-07T15:21:55.566Z,4.67
2019-06-07T15:24:24.423Z,4.40
2019-06-07T15:26:53.294Z,4.17
2019-06-07T15:29:22.122Z,4.33
2019-06-07T15:31:51.046Z,3.90
2019-06-07T15:34:19.875Z,3.63
2019-06-07T15:36:48.723Z,4.13
2019-06-07T15:39:17.563Z,4.47
2019-06-07T15:41:46.420Z,4.47
2019-06-07T15:44:15.292Z,4.00
2019-06-07T15:46:44.307Z,4.23
2019-06-07T15:49:13.160Z,4.20
2019-06-07T15:51:42.025Z,4.10
2019-06-07T15:54:10.858Z,4.03
2019-06-07T15:56:41.074Z,4.23
2019-06-07T15:59:10.286Z,4.73
2019-06-07T16:01:39.539Z,4.80
2019-06-07T16:04:08.637Z,4.87
2019-06-07T16:06:38.281Z,4.50
2019-06-07T16:09:07.666Z,4.70
2019-06-07T16:11:37.074Z,4.67
2019-06-07T16:14:06.484Z,4.50
2019-06-07T16:16:36.959Z,4.30
2019-06-07T16:19:06.018Z,4.87
2019-06-07T16:21:35.273Z,4.47
2019-06-07T16:24:04.208Z,3.90
2019-06-07T16:26:34.003Z,3.87
2019-06-07T16:29:03.471Z,3.80
2019-06-07T16:31:32.340Z,3.90
2019-06-07T16:34:01.303Z,4.47
2019-06-07T16:36:30.212Z,3.77
2019-06-07T16:38:59.085Z,4.00
2019-06-07T16:41:27.861Z,3.63
2019-06-07T16:43:57.186Z,3.40
2019-06-07T16:46:26.043Z,3.73
2019-06-07T16:48:54.815Z,3.30
2019-06-07T16:51:23.722Z,2.90
2019-06-07T16:53:52.506Z,2.90
2019-06-07T16:56:21.371Z,2.87
2019-06-07T16:58:50.415Z,2.80
2019-06-07T17:01:19.269Z,2.77
2019-06-07T17:03:48.144Z,3.47
2019-06-07T17:06:17.201Z,2.93
2019-06-07T17:08:46.357Z,3.40
2019-06-07T17:11:15.238Z,3.37
2019-06-07T17:13:44.480Z,3.13
2019-06-07T17:16:13.316Z,2.80
2019-06-07T17:18:43.272Z,3.13
2019-06-07T17:21:12.302Z,3.23
2019-06-07T17:23:41.286Z,3.20
2019-06-07T17:26:10.115Z,3.50
2019-06-07T17:28:39.632Z,3.57
2019-06-07T17:31:08.678Z,3.83
2019-06-07T17:33:37.497Z,3.90
2019-06-07T17:36:12.648Z,4.43
2019-06-07T17:38:42.456Z,3.57
2019-06-07T17:41:11.814Z,3.47
2019-06-07T17:43:55.156Z,3.40
2019-06-07T17:46:11.262Z,3.57
2019-06-07T17:48:41.406Z,3.47
2019-06-07T17:51:10.482Z,3.27
2019-06-07T17:53:39.322Z,3.20
2019-06-07T17:56:08.182Z,3.60
2019-06-07T17:58:37.109Z,3.63
2019-06-07T18:01:05.994Z,3.37
2019-06-07T18:03:34.787Z,3.80
2019-06-07T18:06:03.646Z,3.70
2019-06-07T18:08:32.595Z,2.90
2019-06-07T18:11:01.468Z,3.50
2019-06-07T18:13:30.311Z,3.50
2019-06-07T18:15:59.913Z,3.00
2019-06-07T18:18:28.871Z,2.97
2019-06-07T18:20:57.704Z,2.80
2019-06-07T18:23:26.510Z,3.03
2019-06-07T18:25:55.335Z,3.07
2019-06-07T18:28:24.140Z,2.50
2019-06-07T18:30:52.999Z,2.67
2019-06-07T18:33:21.855Z,2.77
2019-06-07T18:35:51.289Z,2.90
2019-06-07T18:38:20.425Z,3.07
2019-06-07T18:40:49.276Z,3.50
2019-06-07T18:43:18.112Z,3.03
2019-06-07T18:45:47.304Z,2.60
2019-06-07T18:48:16.377Z,3.07
2019-06-07T18:50:46.419Z,2.60
2019-06-07T18:53:15.416Z,2.73
2019-06-07T18:55:44.195Z,3.10
2019-06-07T18:58:13.009Z,3.30
2019-06-07T19:00:42.019Z,3.30
2019-06-07T19:03:10.907Z,2.70
2019-06-07T19:05:39.760Z,3.20
2019-06-07T19:08:08.590Z,3.07
2019-06-07T19:10:37.643Z,2.87
2019-06-07T19:13:06.575Z,3.07
2019-06-07T19:15:35.430Z,3.30
2019-06-07T19:18:04.411Z,2.67
2019-06-07T19:20:33.351Z,2.70
2019-06-07T19:23:02.164Z,2.60
2019-06-07T19:25:30.989Z,2.87
2019-06-07T19:28:01.061Z,2.70
2019-06-07T19:30:30.018Z,2.90
2019-06-07T19:32:59.682Z,2.60
2019-06-07T19:35:28.607Z,2.67
2019-06-07T19:37:57.948Z,2.50
2019-06-07T19:40:28.179Z,2.73
2019-06-07T19:42:58.366Z,2.50
2019-06-07T19:45:30.909Z,2.50
2019-06-07T19:47:58.714Z,2.43
2019-06-07T19:50:27.634Z,2.77
2019-06-07T19:52:57.055Z,2.87
2019-06-07T19:55:26.100Z,4.83
2019-06-07T19:57:55.572Z,3.47
2019-06-07T20:00:24.647Z,4.00
2019-06-07T20:02:53.713Z,4.63
2019-06-07T20:05:22.681Z,3.67
2019-06-07T20:07:51.544Z,3.37
2019-06-07T20:10:20.375Z,3.23
2019-06-07T20:12:49.250Z,3.37
2019-06-07T20:15:28.398Z,4.67
2019-06-07T20:17:49.098Z,4.80
2019-06-07T20:20:18.023Z,4.90
2019-06-07T20:22:46.985Z,5.67
2019-06-07T20:25:15.891Z,5.33
2019-06-07T20:27:44.854Z,5.83
2019-06-07T20:30:13.629Z,4.90
2019-06-07T20:32:42.454Z,5.40
2019-06-07T20:35:11.343Z,5.70
2019-06-07T20:37:40.132Z,5.77
2019-06-07T20:40:22.449Z,4.97
2019-06-07T20:42:39.544Z,4.13
2019-06-07T20:45:08.551Z,5.60
2019-06-07T20:47:37.367Z,5.30
2019-06-07T20:50:08.477Z,5.30
2019-06-07T20:52:37.766Z,5.13
2019-06-07T20:55:07.043Z,6.10
2019-06-07T20:57:36.020Z,5.50
2019-06-07T21:00:13.672Z,5.73
2019-06-07T21:02:36.261Z,5.90
2019-06-07T21:05:05.617Z,6.43
2019-06-07T21:07:34.451Z,6.37
2019-06-07T21:10:03.733Z,6.67
2019-06-07T21:12:32.667Z,6.80
2019-06-07T21:15:06.491Z,6.63
2019-06-07T21:17:32.051Z,7.20
2019-06-07T21:20:02.800Z,6.80
2019-06-07T21:22:31.489Z,7.27
2019-06-07T21:25:00.729Z,7.50
2019-06-07T21:27:29.930Z,7.30
2019-06-07T21:29:58.774Z,7.50
2019-06-07T21:32:27.639Z,6.87
2019-06-07T21:34:56.445Z,9.57
2019-06-07T21:37:25.291Z,7.70
2019-06-07T21:39:54.103Z,8.10
2019-06-07T21:42:22.980Z,7.37
2019-06-07T21:44:51.986Z,8.27
2019-06-07T21:47:20.864Z,7.10
2019-06-07T21:49:49.674Z,7.03
2019-06-07T21:52:18.505Z,7.23
2019-06-07T21:54:47.564Z,6.23
2019-06-07T21:57:16.522Z,6.90
2019-06-07T21:59:45.414Z,6.63
2019-06-07T22:02:14.624Z,6.23
2019-06-07T22:04:43.604Z,6.13
2019-06-07T22:07:13.593Z,5.67
2019-06-07T22:09:42.675Z,5.57
2019-06-07T22:12:12.125Z,6.50
2019-06-07T22:14:41.104Z,5.47
2019-06-07T22:17:10.306Z,6.07
2019-06-07T22:19:39.306Z,6.07
2019-06-07T22:22:09.321Z,6.43
2019-06-07T22:24:38.695Z,6.73
2019-06-07T22:27:09.077Z,7.47
2019-06-07T22:29:38.154Z,6.83
2019-06-07T22:32:07.098Z,7.77
2019-06-07T22:34:36.032Z,6.73
2019-06-07T22:37:04.976Z,7.23
2019-06-07T22:39:34.050Z,6.47
2019-06-07T22:42:11.871Z,6.90
2019-06-07T22:44:40.474Z,6.73
2019-06-07T22:47:09.990Z,6.83
2019-06-07T22:49:38.984Z,6.83
2019-06-07T22:52:10.709Z,7.00
2019-06-07T22:54:38.796Z,6.63
2019-06-07T22:57:14.161Z,6.07
2019-06-07T22:59:43.327Z,5.80
2019-06-07T23:02:12.660Z,6.57
2019-06-07T23:04:41.868Z,6.10
2019-06-07T23:07:10.870Z,5.57
2019-06-07T23:09:39.791Z,5.67
2019-06-07T23:12:09.139Z,6.00
2019-06-07T23:14:38.128Z,5.57
2019-06-07T23:17:06.982Z,5.97
2019-06-07T23:19:35.764Z,5.23
2019-06-07T23:22:04.679Z,5.43
2019-06-07T23:24:33.592Z,5.30
2019-06-07T23:27:21.643Z,4.97
2019-06-07T23:29:50.458Z,4.80
2019-06-07T23:32:20.158Z,4.80
2019-06-07T23:34:50.055Z,4.37
2019-06-07T23:37:19.173Z,4.00
2019-06-07T23:40:07.310Z,4.07
2019-06-07T23:42:36.439Z,4.30
2019-06-07T23:45:05.490Z,4.07
2019-06-07T23:47:34.303Z,4.40
2019-06-07T23:50:03.306Z,4.40
2019-06-07T23:52:32.106Z,4.50
2019-06-07T23:55:00.939Z,5.17
2019-06-07T23:57:29.726Z,4.47
2019-06-07T23:59:58.548Z,4.90
